This is the latest recevied weather packets stored in our database for station/object KD4EED. If no packets are shown the sender has not sent any weather packets the latest 10 day(s).
| Time | Temp. | Humidity | Pressure | Rain* | Wind** | Luminosity | Snow |
|---|---|---|---|---|---|---|---|
| 1777753700 | 22.78° C | 66% | 1010.6 hPa | - | - | 780 W/m² | - |
| 1777753399 | 22.22° C | 65% | 1010.9 hPa | - | - | 636 W/m² | - |
| 1777753096 | 22.22° C | 63% | 1010.7 hPa | - | - | 634 W/m² | - |
| 1777752792 | 21.67° C | 65% | 1010.8 hPa | - | - | 796 W/m² | - |
| 1777752488 | 21.67° C | 64% | 1010.6 hPa | - | - | 730 W/m² | - |
| 1777752184 | 21.67° C | 67% | 1010.8 hPa | - | - | 658 W/m² | - |
| 1777751883 | 21.11° C | 65% | 1010.9 hPa | - | - | 758 W/m² | - |
| 1777751579 | 21.11° C | 65% | 1011 hPa | - | - | 705 W/m² | - |
| 1777751275 | 21.11° C | 65% | 1011.3 hPa | - | - | 547 W/m² | - |
| 1777750973 | 21.67° C | 65% | 1011.2 hPa | - | - | 556 W/m² | - |
| 1777750668 | 21.11° C | 65% | 1011.3 hPa | - | - | 600 W/m² | - |
| 1777750366 | 21.67° C | 64% | 1011.2 hPa | - | - | 630 W/m² | - |
| 1777750066 | 21.67° C | 64% | 1011.2 hPa | - | - | 361 W/m² | - |
| 1777749764 | 21.11° C | 68% | 1011.4 hPa | - | - | 731 W/m² | - |
| 1777749460 | 21.11° C | 66% | 1011.6 hPa | - | - | 308 W/m² | - |
| 1777749158 | 20.56° C | 68% | 1011.6 hPa | - | - | 740 W/m² | - |
| 1777748855 | 20.56° C | 69% | 1011.7 hPa | - | - | 502 W/m² | - |
| 1777748553 | 20° C | 70% | 1011.7 hPa | - | - | 376 W/m² | - |
| 1777748253 | 20° C | 70% | 1012 hPa | - | - | 366 W/m² | - |
| 1777747949 | 20° C | 70% | 1012.1 hPa | - | - | 428 W/m² | - |
| 1777747646 | 20° C | 70% | 1012.1 hPa | - | - | 309 W/m² | - |
| 1777747341 | 20° C | 71% | 1012.1 hPa | - | - | 371 W/m² | - |
| 1777747039 | 20° C | 69% | 1012.1 hPa | - | - | 250 W/m² | - |
| 1777746734 | 20° C | 71% | 1012.2 hPa | - | - | 268 W/m² | - |
| 1777746430 | 19.44° C | 73% | 1012.1 hPa | - | - | 267 W/m² | - |
* Rain since midnight (hover to see other rain measurements)
** Current wind speed in m/s (hover to see current wind gust speed)